This is the latest recevied weather packets stored in our database for station/object OK1KKY-18. If no packets are shown the sender has not sent any weather packets the latest 10 day(s).
| Time | Temp. | Humidity | Pressure | Rain* | Wind** | Luminosity | Snow |
|---|---|---|---|---|---|---|---|
| 1787642835 | 15.56° C | 57% | 1017.9 hPa | - | - | - | - |
| 1787642235 | 15.56° C | 58% | 1018 hPa | - | - | - | - |
| 1787641635 | 15.56° C | 58% | 1017.8 hPa | - | - | - | - |
| 1787641035 | 15° C | 60% | 1017.9 hPa | - | - | - | - |
| 1787640435 | 14.44° C | 61% | 1017.9 hPa | - | - | - | - |
| 1787639835 | 13.89° C | 71% | 1017.9 hPa | - | - | - | - |
| 1787639235 | 13.33° C | 72% | 1017.9 hPa | - | - | - | - |
| 1787638635 | 12.78° C | 84% | 1017.9 hPa | - | - | - | - |
| 1787638035 | 12.22° C | 80% | 1018.1 hPa | - | - | - | - |
| 1787637435 | 12.22° C | 81% | 1018.1 hPa | - | - | - | - |
| 1787636835 | 10.56° C | 91% | 1018.2 hPa | - | - | - | - |
| 1787636235 | 10° C | 93% | 1018.2 hPa | - | - | - | - |
| 1787635635 | 10° C | 95% | 1018.1 hPa | - | - | - | - |
| 1787635035 | 9.44° C | 93% | 1018.3 hPa | - | - | - | - |
| 1787634435 | 9.44° C | 94% | 1018.2 hPa | - | - | - | - |
| 1787633835 | 9.44° C | 93% | 1018.2 hPa | - | - | - | - |
| 1787633235 | 9.44° C | 94% | 1018.3 hPa | - | - | - | - |
| 1787632635 | 9.44° C | 93% | 1018.3 hPa | - | - | - | - |
| 1787632035 | 8.89° C | 96% | 1018.3 hPa | - | - | - | - |
| 1787631435 | 8.89° C | 96% | 1018.5 hPa | - | - | - | - |
| 1787630835 | 8.89° C | 95% | 1018.6 hPa | - | - | - | - |
| 1787630235 | 8.89° C | 95% | 1018.4 hPa | - | - | - | - |
| 1787629635 | 8.89° C | 95% | 1018.6 hPa | - | - | - | - |
| 1787629035 | 8.89° C | 94% | 1018.6 hPa | - | - | - | - |
| 1787628435 | 8.89° C | 95% | 1018.8 hPa | - | - | - | - |
* Rain since midnight (hover to see other rain measurements)
** Current wind speed in m/s (hover to see current wind gust speed)